createdAt,value
2022-09-25T00:00:45.565Z,22.87
2022-09-25T00:03:13.602Z,22.87
2022-09-25T00:05:41.714Z,22.87
2022-09-25T00:08:09.528Z,22.86
2022-09-25T00:10:41.805Z,22.85
2022-09-25T00:13:08.559Z,22.84
2022-09-25T00:15:35.210Z,22.86
2022-09-25T00:18:02.013Z,22.85
2022-09-25T00:20:28.736Z,22.83
2022-09-25T00:22:55.778Z,22.84
2022-09-25T00:25:22.518Z,22.83
2022-09-25T00:27:54.304Z,22.85
2022-09-25T00:30:21.117Z,22.85
2022-09-25T00:32:47.669Z,22.85
2022-09-25T00:35:14.301Z,22.85
2022-09-25T00:37:40.832Z,22.85
2022-09-25T00:40:08.193Z,22.64
2022-09-25T00:42:36.387Z,22.87
2022-09-25T00:45:24.813Z,22.87
2022-09-25T00:48:14.792Z,22.88
2022-09-25T00:50:55.512Z,22.87
2022-09-25T00:53:27.242Z,22.88
2022-09-25T00:55:56.442Z,22.89
2022-09-25T00:58:25.441Z,22.88
2022-09-25T01:00:53.803Z,22.87
2022-09-25T01:03:20.912Z,22.88
2022-09-25T01:05:49.224Z,22.87
2022-09-25T01:08:19.665Z,22.87
2022-09-25T01:10:46.616Z,22.87
2022-09-25T01:13:15.328Z,22.87
2022-09-25T01:15:52.784Z,22.87
2022-09-25T01:18:55.618Z,22.86
2022-09-25T01:21:27.387Z,22.85
2022-09-25T01:24:15.155Z,22.86
2022-09-25T01:27:06.672Z,22.86
2022-09-25T01:30:01.929Z,22.82
2022-09-25T01:32:42.617Z,22.82
2022-09-25T01:35:37.615Z,22.84
2022-09-25T01:38:28.500Z,22.84
2022-09-25T01:40:58.439Z,22.82
2022-09-25T01:43:41.973Z,22.83
2022-09-25T01:46:22.553Z,22.80
2022-09-25T01:48:55.395Z,22.82
2022-09-25T01:51:27.631Z,22.82
2022-09-25T01:53:58.218Z,22.81
2022-09-25T01:56:32.958Z,22.74
2022-09-25T01:59:24.206Z,22.80
2022-09-25T02:01:52.903Z,22.81
2022-09-25T02:04:35.164Z,22.80
2022-09-25T02:07:04.156Z,22.78
2022-09-25T02:09:37.528Z,22.76
2022-09-25T02:12:14.365Z,22.76
2022-09-25T02:15:02.172Z,22.64
2022-09-25T02:18:00.493Z,22.70
2022-09-25T02:20:33.926Z,22.68
2022-09-25T02:23:23.582Z,22.66
2022-09-25T02:26:02.042Z,22.63
2022-09-25T02:31:02.562Z,22.53
2022-09-25T02:33:29.829Z,22.56
2022-09-25T02:35:56.445Z,22.57
2022-09-25T02:38:23.073Z,22.57
2022-09-25T02:41:21.277Z,22.56
2022-09-25T02:44:24.689Z,22.55
2022-09-25T02:47:13.240Z,22.54
2022-09-25T02:50:05.618Z,22.53
2022-09-25T02:52:41.785Z,22.52
2022-09-25T02:55:51.787Z,22.53
2022-09-25T02:58:37.092Z,22.49
2022-09-25T03:01:50.722Z,22.51
2022-09-25T03:04:19.177Z,22.49
2022-09-25T03:06:46.261Z,22.47
2022-09-25T03:09:15.809Z,22.49
2022-09-25T03:11:43.590Z,22.49
2022-09-25T03:14:10.513Z,22.48
2022-09-25T03:16:51.579Z,22.49
2022-09-25T03:19:21.910Z,22.47
2022-09-25T03:21:49.005Z,22.47
2022-09-25T03:24:16.024Z,22.48
2022-09-25T03:26:43.106Z,22.48
2022-09-25T03:29:12.746Z,22.47
2022-09-25T03:31:39.856Z,22.48
2022-09-25T03:34:06.465Z,22.47
2022-09-25T03:36:34.864Z,22.43
2022-09-25T03:39:01.585Z,22.48
2022-09-25T03:41:31.175Z,22.49
2022-09-25T03:43:58.505Z,22.29
2022-09-25T03:46:30.498Z,22.48
2022-09-25T03:48:57.456Z,22.48
2022-09-25T03:51:26.021Z,22.49
2022-09-25T03:53:53.631Z,22.49
2022-09-25T03:56:24.977Z,22.48
2022-09-25T03:58:54.280Z,22.49
2022-09-25T04:01:21.891Z,22.49
2022-09-25T04:03:49.403Z,22.49
2022-09-25T04:06:18.384Z,22.42
2022-09-25T04:08:46.132Z,22.49
2022-09-25T04:11:12.964Z,22.48
2022-09-25T04:16:08.357Z,22.49
2022-09-25T04:18:35.501Z,22.48
2022-09-25T04:21:06.659Z,22.47
2022-09-25T04:25:50.988Z,22.48
2022-09-25T04:28:17.757Z,22.47
2022-09-25T04:30:44.492Z,22.48
2022-09-25T04:33:30.051Z,22.48
2022-09-25T04:35:56.812Z,22.48
2022-09-25T04:38:23.641Z,22.49
2022-09-25T04:40:50.271Z,22.50
2022-09-25T04:43:16.840Z,22.50
2022-09-25T04:45:43.411Z,22.49
2022-09-25T04:48:09.977Z,22.51
2022-09-25T04:50:36.592Z,22.51
2022-09-25T04:53:03.120Z,22.51
2022-09-25T04:55:30.168Z,22.52
2022-09-25T04:57:59.541Z,22.53
2022-09-25T05:00:28.998Z,22.54
2022-09-25T05:02:55.795Z,22.53
2022-09-25T05:05:27.237Z,22.51
2022-09-25T05:07:54.564Z,22.33
2022-09-25T05:10:22.488Z,22.48
2022-09-25T05:12:54.202Z,22.54
2022-09-25T05:15:21.064Z,22.54
2022-09-25T05:17:47.724Z,22.55
2022-09-25T05:20:14.323Z,22.56
2022-09-25T05:22:40.844Z,22.57
2022-09-25T05:25:07.928Z,22.58
2022-09-25T05:27:34.671Z,22.52
2022-09-25T05:30:01.593Z,22.58
2022-09-25T05:32:28.185Z,22.58
2022-09-25T05:34:54.706Z,22.59
2022-09-25T05:37:21.185Z,22.60
2022-09-25T05:39:47.837Z,22.61
2022-09-25T05:42:15.961Z,22.61
2022-09-25T05:44:42.493Z,22.62
2022-09-25T05:47:09.014Z,22.40
2022-09-25T05:49:35.599Z,22.62
2022-09-25T05:52:02.341Z,22.63
2022-09-25T05:54:28.871Z,22.62
2022-09-25T05:56:55.377Z,22.63
2022-09-25T05:59:21.944Z,22.64
2022-09-25T06:01:48.552Z,22.65
2022-09-25T06:04:15.189Z,22.65
2022-09-25T06:06:41.680Z,22.65
2022-09-25T06:09:08.276Z,22.66
2022-09-25T06:11:35.097Z,22.66
2022-09-25T06:14:02.018Z,22.66
2022-09-25T06:16:28.677Z,22.67
2022-09-25T06:18:56.239Z,22.68
2022-09-25T06:23:36.937Z,22.68
2022-09-25T06:26:05.916Z,22.64
2022-09-25T06:28:33.128Z,22.69
2022-09-25T06:31:01.062Z,22.72
2022-09-25T06:33:27.827Z,22.71
2022-09-25T06:35:54.396Z,22.72
2022-09-25T06:38:21.110Z,22.73
2022-09-25T06:40:47.711Z,22.74
2022-09-25T06:43:15.998Z,22.75
2022-09-25T06:45:43.278Z,22.75
2022-09-25T06:48:15.665Z,22.77
2022-09-25T06:50:55.316Z,22.75
2022-09-25T06:53:23.970Z,22.73
2022-09-25T06:55:51.038Z,22.79
2022-09-25T06:58:20.708Z,22.79
2022-09-25T07:00:52.096Z,22.80
2022-09-25T07:03:37.686Z,22.75
2022-09-25T07:06:06.543Z,22.82
2022-09-25T07:08:33.336Z,22.82
2022-09-25T07:11:01.534Z,22.84
2022-09-25T07:13:31.481Z,22.84
2022-09-25T07:16:00.141Z,22.85
2022-09-25T07:18:28.537Z,22.87
2022-09-25T07:21:11.451Z,22.88
2022-09-25T07:23:39.515Z,22.88
2022-09-25T07:26:10.766Z,22.88
2022-09-25T07:28:39.164Z,22.89
2022-09-25T07:31:19.282Z,22.89
2022-09-25T07:33:46.893Z,22.90
2022-09-25T07:36:14.841Z,22.91
2022-09-25T07:38:42.033Z,22.84
2022-09-25T07:41:13.512Z,22.91
2022-09-25T07:43:42.181Z,22.91
2022-09-25T07:46:08.770Z,22.93
2022-09-25T07:48:35.700Z,22.93
2022-09-25T07:51:04.780Z,22.93
2022-09-25T07:53:31.851Z,22.93
2022-09-25T07:56:06.073Z,22.92
2022-09-25T07:58:35.418Z,22.94
2022-09-25T08:01:04.947Z,22.94
2022-09-25T08:03:31.623Z,22.94
2022-09-25T08:06:07.216Z,22.95
2022-09-25T08:08:34.474Z,22.95
2022-09-25T08:11:02.853Z,22.95
2022-09-25T08:13:32.384Z,22.95
2022-09-25T08:15:59.513Z,22.95
2022-09-25T08:18:26.136Z,22.96
2022-09-25T08:20:52.689Z,22.97
2022-09-25T08:23:20.088Z,22.95
2022-09-25T08:25:49.679Z,22.97
2022-09-25T08:28:16.390Z,22.97
2022-09-25T08:32:58.945Z,22.98
2022-09-25T08:35:27.998Z,22.97
2022-09-25T08:37:55.032Z,22.97
2022-09-25T08:40:30.990Z,22.97
2022-09-25T08:42:59.031Z,22.96
2022-09-25T08:45:58.859Z,22.96
2022-09-25T08:48:51.751Z,22.97
2022-09-25T08:51:18.746Z,23.00
2022-09-25T08:53:46.090Z,22.91
2022-09-25T08:56:20.021Z,22.95
2022-09-25T08:59:23.687Z,22.92
2022-09-25T09:01:56.026Z,22.87
2022-09-25T09:04:32.054Z,22.84
2022-09-25T09:07:28.118Z,22.80
2022-09-25T09:10:11.030Z,22.76
2022-09-25T09:12:44.841Z,22.72
2022-09-25T09:15:27.631Z,22.70
2022-09-25T09:17:57.989Z,22.68
2022-09-25T09:20:33.227Z,22.66
2022-09-25T09:23:00.886Z,22.63
2022-09-25T09:28:14.957Z,22.60
2022-09-25T09:31:01.093Z,22.55
2022-09-25T09:33:34.370Z,22.55
2022-09-25T09:36:26.382Z,22.53
2022-09-25T09:39:15.969Z,22.52
2022-09-25T09:41:50.164Z,22.51
2022-09-25T09:44:51.334Z,22.50
2022-09-25T09:47:45.454Z,22.48
2022-09-25T09:50:43.231Z,22.46
2022-09-25T09:53:24.097Z,22.45
2022-09-25T09:55:54.287Z,22.45
2022-09-25T09:58:33.658Z,22.43
2022-09-25T10:01:15.984Z,22.39
2022-09-25T10:03:49.862Z,22.41
2022-09-25T10:06:22.427Z,22.40
2022-09-25T10:08:49.467Z,22.34
2022-09-25T10:11:18.348Z,22.32
2022-09-25T10:13:46.169Z,22.39
2022-09-25T10:16:16.416Z,22.39
2022-09-25T10:19:07.262Z,22.39
2022-09-25T10:21:42.274Z,22.36
2022-09-25T10:24:08.956Z,22.36
2022-09-25T10:26:39.855Z,22.35
2022-09-25T10:29:21.665Z,22.36
2022-09-25T10:31:56.839Z,22.34
2022-09-25T10:34:24.275Z,22.33
2022-09-25T10:36:53.125Z,22.33
2022-09-25T10:39:46.675Z,22.34
2022-09-25T10:42:37.628Z,22.38
2022-09-25T10:45:29.833Z,22.40
2022-09-25T10:48:17.694Z,22.39
2022-09-25T10:50:44.508Z,22.43
2022-09-25T10:55:31.209Z,22.48
2022-09-25T10:58:06.737Z,22.49
2022-09-25T11:00:42.386Z,22.49
2022-09-25T11:03:21.580Z,22.50
2022-09-25T11:05:55.135Z,22.53
2022-09-25T11:08:28.956Z,22.49
2022-09-25T11:11:00.680Z,22.56
2022-09-25T11:13:36.923Z,22.58
2022-09-25T11:16:10.290Z,22.61
2022-09-25T11:18:48.748Z,22.63
2022-09-25T11:21:23.489Z,22.64
2022-09-25T11:24:04.209Z,22.66
2022-09-25T11:26:36.028Z,22.67
2022-09-25T11:29:58.510Z,22.70
2022-09-25T11:32:40.027Z,22.70
2022-09-25T11:35:39.404Z,22.73
2022-09-25T11:38:45.209Z,22.74
2022-09-25T11:41:35.189Z,22.75
2022-09-25T11:44:19.984Z,22.76
2022-09-25T11:46:50.419Z,22.78
2022-09-25T11:49:17.143Z,22.80
2022-09-25T11:52:16.491Z,22.81
2022-09-25T11:55:18.497Z,22.81
2022-09-25T11:57:57.084Z,22.82
2022-09-25T12:00:34.216Z,22.83
2022-09-25T12:03:43.044Z,22.85
2022-09-25T12:06:19.966Z,22.85
2022-09-25T12:08:53.421Z,22.87
2022-09-25T12:11:51.096Z,22.88
2022-09-25T12:14:36.111Z,22.87
2022-09-25T12:17:50.998Z,22.88
2022-09-25T12:20:32.763Z,22.88
2022-09-25T12:23:31.433Z,22.90
2022-09-25T12:26:12.452Z,22.92
2022-09-25T12:29:10.464Z,22.92
2022-09-25T12:32:14.897Z,22.93
2022-09-25T12:34:44.396Z,22.93
2022-09-25T12:37:28.767Z,22.88
2022-09-25T12:40:11.687Z,22.95
2022-09-25T12:42:59.097Z,22.94
2022-09-25T12:45:33.320Z,22.98
2022-09-25T12:48:23.588Z,22.99
2022-09-25T12:51:01.485Z,22.95
2022-09-25T12:53:39.600Z,23.02
2022-09-25T12:56:32.112Z,23.04
2022-09-25T12:58:59.220Z,23.04
2022-09-25T13:01:37.803Z,23.08
2022-09-25T13:04:23.549Z,23.08
2022-09-25T13:07:08.118Z,23.04
2022-09-25T13:09:45.477Z,23.09
2022-09-25T13:12:26.160Z,23.10
2022-09-25T13:14:57.641Z,23.08
2022-09-25T13:17:24.366Z,23.09
2022-09-25T13:19:51.518Z,23.10
2022-09-25T13:22:20.767Z,23.11
2022-09-25T13:25:02.965Z,23.12
2022-09-25T13:27:39.011Z,23.13
2022-09-25T13:30:07.073Z,23.14
2022-09-25T13:32:39.093Z,23.15
2022-09-25T13:35:19.999Z,23.15
2022-09-25T13:37:48.302Z,23.17
2022-09-25T13:40:39.276Z,23.18
2022-09-25T13:43:21.265Z,23.19
2022-09-25T13:45:49.201Z,23.22
2022-09-25T13:48:36.142Z,23.24
2022-09-25T13:51:18.289Z,23.25
2022-09-25T13:53:51.028Z,23.25
2022-09-25T13:56:23.568Z,23.26
2022-09-25T13:59:16.010Z,23.27
2022-09-25T14:01:51.265Z,23.25
2022-09-25T14:04:31.769Z,23.25
2022-09-25T14:07:07.497Z,23.24
2022-09-25T14:09:34.325Z,23.25
2022-09-25T14:14:28.225Z,23.23
2022-09-25T14:17:01.006Z,23.22
2022-09-25T14:19:36.440Z,23.22
2022-09-25T14:22:06.327Z,23.21
2022-09-25T14:24:33.033Z,23.22
2022-09-25T14:27:03.918Z,23.21
2022-09-25T14:29:40.778Z,23.20
2022-09-25T14:32:43.212Z,23.17
2022-09-25T14:35:05.432Z,23.17
2022-09-25T14:38:06.733Z,23.12
2022-09-25T14:40:40.162Z,23.15
2022-09-25T14:43:13.267Z,23.15
2022-09-25T14:45:54.825Z,23.14
2022-09-25T14:48:46.771Z,23.15
2022-09-25T14:51:24.655Z,23.14
2022-09-25T14:54:00.800Z,23.14
2022-09-25T14:56:34.073Z,23.14
2022-09-25T14:59:11.647Z,23.15
2022-09-25T15:01:47.734Z,23.15
2022-09-25T15:04:29.652Z,23.15
2022-09-25T15:07:08.574Z,23.17
2022-09-25T15:09:38.624Z,23.21
2022-09-25T15:12:31.588Z,23.23
2022-09-25T15:15:03.971Z,23.22
2022-09-25T15:17:32.766Z,23.22
2022-09-25T15:20:03.083Z,23.21
2022-09-25T15:22:38.593Z,23.20
2022-09-25T15:25:08.263Z,23.19
2022-09-25T15:27:42.462Z,23.17
2022-09-25T15:30:15.790Z,23.09
2022-09-25T15:32:47.413Z,22.92
2022-09-25T15:35:18.349Z,23.13
2022-09-25T15:37:46.735Z,23.13
2022-09-25T15:40:27.902Z,23.12
2022-09-25T15:42:55.306Z,23.11
2022-09-25T15:45:45.227Z,23.13
2022-09-25T15:48:31.204Z,23.13
2022-09-25T15:51:03.749Z,23.13
2022-09-25T15:53:35.932Z,23.13
2022-09-25T15:56:27.469Z,23.12
2022-09-25T15:59:13.822Z,23.08
2022-09-25T16:02:05.319Z,23.14
2022-09-25T16:04:47.155Z,23.14
2022-09-25T16:07:29.304Z,23.13
2022-09-25T16:10:01.332Z,23.14
2022-09-25T16:12:32.537Z,23.14
2022-09-25T16:15:24.453Z,23.09
2022-09-25T16:17:51.093Z,23.15
2022-09-25T16:20:23.242Z,23.15
2022-09-25T16:22:57.025Z,23.15
2022-09-25T16:25:32.075Z,23.16
2022-09-25T16:28:15.947Z,23.16
2022-09-25T16:30:58.857Z,23.16
2022-09-25T16:33:28.776Z,23.15
2022-09-25T16:36:12.876Z,23.16
2022-09-25T16:38:42.743Z,22.94
2022-09-25T16:41:12.046Z,23.16
2022-09-25T16:43:39.669Z,23.16
2022-09-25T16:46:22.092Z,23.16
2022-09-25T16:49:01.862Z,23.16
2022-09-25T16:51:32.905Z,23.13
2022-09-25T16:54:03.624Z,23.16
2022-09-25T16:56:31.914Z,23.16
2022-09-25T16:58:59.251Z,23.17
2022-09-25T17:03:52.497Z,23.17
2022-09-25T17:06:20.555Z,23.17
2022-09-25T17:08:49.213Z,23.17
2022-09-25T17:11:18.119Z,23.13
2022-09-25T17:13:45.736Z,23.17
2022-09-25T17:16:12.499Z,23.18
2022-09-25T17:18:39.537Z,22.93
2022-09-25T17:21:13.454Z,23.18
2022-09-25T17:23:40.044Z,23.18
2022-09-25T17:26:18.452Z,23.19
2022-09-25T17:28:45.132Z,23.18
2022-09-25T17:31:14.808Z,23.18
2022-09-25T17:33:41.544Z,23.18
2022-09-25T17:36:11.351Z,23.18
2022-09-25T17:38:38.191Z,23.19
2022-09-25T17:41:32.633Z,23.19
2022-09-25T17:43:59.734Z,23.13
2022-09-25T17:48:40.894Z,23.19
2022-09-25T17:53:22.009Z,23.19
2022-09-25T17:55:53.374Z,23.18
2022-09-25T17:58:22.254Z,23.18
2022-09-25T18:00:51.285Z,23.17
2022-09-25T18:03:18.780Z,23.19
2022-09-25T18:05:45.446Z,23.19
2022-09-25T18:08:12.447Z,23.14
2022-09-25T18:10:39.309Z,23.20
2022-09-25T18:13:07.762Z,22.95
2022-09-25T18:15:36.838Z,23.20
2022-09-25T18:18:04.001Z,23.14
2022-09-25T18:20:48.897Z,23.21
2022-09-25T18:23:15.565Z,23.21
2022-09-25T18:25:42.077Z,23.20
2022-09-25T18:28:09.149Z,23.20
2022-09-25T18:30:38.028Z,23.20
2022-09-25T18:33:04.995Z,23.21
2022-09-25T18:35:31.613Z,23.17
2022-09-25T18:37:59.719Z,23.21
2022-09-25T18:42:47.052Z,23.21
2022-09-25T18:45:14.477Z,23.21
2022-09-25T18:47:42.820Z,23.20
2022-09-25T18:50:10.610Z,23.21
2022-09-25T18:52:40.248Z,23.17
2022-09-25T18:55:07.319Z,23.21
2022-09-25T18:57:37.400Z,23.21
2022-09-25T19:00:07.364Z,23.21
2022-09-25T19:02:39.054Z,23.20
2022-09-25T19:05:06.836Z,23.21
2022-09-25T19:07:33.575Z,23.20
2022-09-25T19:10:07.677Z,23.21
2022-09-25T19:12:34.347Z,23.21
2022-09-25T19:15:01.585Z,23.21
2022-09-25T19:17:28.145Z,23.21
2022-09-25T19:19:54.634Z,23.22
2022-09-25T19:22:23.819Z,23.21
2022-09-25T19:24:52.627Z,23.20
2022-09-25T19:27:21.950Z,23.22
2022-09-25T19:29:48.491Z,23.21
2022-09-25T19:32:17.072Z,23.21
2022-09-25T19:34:43.878Z,23.21
2022-09-25T19:37:10.967Z,23.22
2022-09-25T19:39:57.424Z,23.22
2022-09-25T19:42:26.421Z,23.21
2022-09-25T19:44:54.657Z,23.21
2022-09-25T19:47:23.931Z,23.20
2022-09-25T19:49:50.523Z,23.22
2022-09-25T19:52:17.241Z,23.23
2022-09-25T19:54:43.786Z,23.22
2022-09-25T19:57:10.427Z,23.21
2022-09-25T19:59:36.961Z,23.22
2022-09-25T20:04:35.749Z,23.22
2022-09-25T20:07:02.383Z,23.21
2022-09-25T20:09:28.885Z,23.21
2022-09-25T20:11:57.675Z,23.21
2022-09-25T20:14:27.107Z,23.22
2022-09-25T20:16:54.974Z,23.22
2022-09-25T20:19:21.793Z,23.20
2022-09-25T20:21:48.944Z,23.22
2022-09-25T20:24:15.899Z,23.22
2022-09-25T20:26:42.525Z,23.22
2022-09-25T20:29:14.723Z,23.22
2022-09-25T20:31:44.262Z,23.21
2022-09-25T20:34:17.215Z,23.20
2022-09-25T20:36:44.161Z,23.22
2022-09-25T20:39:11.004Z,23.21
2022-09-25T20:41:38.248Z,23.16
2022-09-25T20:44:05.379Z,23.22
2022-09-25T20:46:33.173Z,23.22
2022-09-25T20:49:00.550Z,23.15
2022-09-25T20:51:29.809Z,23.22
2022-09-25T20:54:07.433Z,23.21
2022-09-25T20:56:36.364Z,23.22
2022-09-25T20:59:04.337Z,23.22
2022-09-25T21:01:34.689Z,23.22
2022-09-25T21:04:03.527Z,23.22
2022-09-25T21:06:32.727Z,23.22
2022-09-25T21:09:01.143Z,23.20
2022-09-25T21:11:30.114Z,23.18
2022-09-25T21:13:59.481Z,23.21
2022-09-25T21:16:28.090Z,23.21
2022-09-25T21:19:04.562Z,23.15
2022-09-25T21:21:33.129Z,23.21
2022-09-25T21:24:02.450Z,23.17
2022-09-25T21:26:30.717Z,23.20
2022-09-25T21:28:59.252Z,23.20
2022-09-25T21:31:34.639Z,23.19
2022-09-25T21:34:01.868Z,23.19
2022-09-25T21:36:29.172Z,23.19
2022-09-25T21:38:56.117Z,23.16
2022-09-25T21:41:25.223Z,23.18
2022-09-25T21:43:59.711Z,23.17
2022-09-25T21:46:27.342Z,23.18
2022-09-25T21:48:59.263Z,23.18
2022-09-25T21:51:31.964Z,22.99
2022-09-25T21:54:00.908Z,23.15
2022-09-25T21:56:30.679Z,23.17
2022-09-25T22:01:27.820Z,23.21
2022-09-25T22:03:56.800Z,23.22
2022-09-25T22:06:29.081Z,23.21
2022-09-25T22:08:58.554Z,23.20
2022-09-25T22:11:26.290Z,23.17
2022-09-25T22:13:53.548Z,23.11
2022-09-25T22:16:29.930Z,23.14
2022-09-25T22:19:27.324Z,23.14
2022-09-25T22:21:58.837Z,23.14
2022-09-25T22:24:26.392Z,23.14
2022-09-25T22:26:55.398Z,23.13
2022-09-25T22:29:22.948Z,23.07
2022-09-25T22:31:50.458Z,23.10
2022-09-25T22:34:20.995Z,23.14
2022-09-25T22:36:48.701Z,23.14
2022-09-25T22:39:18.100Z,23.09
2022-09-25T22:41:45.795Z,23.12
2022-09-25T22:44:12.403Z,23.11
2022-09-25T22:46:39.301Z,23.11
2022-09-25T22:49:06.252Z,23.11
2022-09-25T22:51:32.965Z,22.88
2022-09-25T22:53:59.469Z,23.11
2022-09-25T22:56:36.849Z,23.10
2022-09-25T23:01:26.194Z,23.10
2022-09-25T23:03:58.381Z,23.08
2022-09-25T23:06:25.476Z,23.09
2022-09-25T23:08:57.792Z,23.09
2022-09-25T23:11:25.497Z,23.09
2022-09-25T23:14:06.853Z,23.07
2022-09-25T23:16:34.701Z,23.07
2022-09-25T23:19:02.098Z,23.06
2022-09-25T23:21:30.316Z,23.07
2022-09-25T23:24:02.486Z,23.06
2022-09-25T23:26:29.793Z,23.06
2022-09-25T23:28:58.590Z,23.06
2022-09-25T23:31:25.898Z,23.05
2022-09-25T23:33:52.685Z,23.04
2022-09-25T23:36:21.606Z,23.04
2022-09-25T23:38:49.780Z,23.04
2022-09-25T23:41:17.468Z,23.03
2022-09-25T23:43:45.228Z,23.02
2022-09-25T23:46:13.099Z,23.01
2022-09-25T23:48:39.776Z,22.99
2022-09-25T23:51:06.861Z,23.00
2022-09-25T23:53:34.059Z,23.00
2022-09-25T23:56:15.852Z,22.99
2022-09-25T23:58:43.544Z,22.98
